sensor_id;sensor_type;location;lat;lon;timestamp;pressure;altitude;pressure_sealevel;temperature;humidity
63903;BME280;50072;50.678;13.938;2023-05-16T00:01:41;99006.59;;;9.34;100.00
63903;BME280;50072;50.678;13.938;2023-05-16T00:04:08;99014.53;;;9.37;100.00
63903;BME280;50072;50.678;13.938;2023-05-16T00:06:33;99020.72;;;9.38;100.00
63903;BME280;50072;50.678;13.938;2023-05-16T00:09:00;99027.88;;;9.37;100.00
63903;BME280;50072;50.678;13.938;2023-05-16T00:11:26;99022.84;;;9.28;100.00
63903;BME280;50072;50.678;13.938;2023-05-16T00:13:52;99019.47;;;9.21;100.00
63903;BME280;50072;50.678;13.938;2023-05-16T00:16:18;99028.13;;;9.29;100.00
63903;BME280;50072;50.678;13.938;2023-05-16T00:18:46;99027.38;;;9.24;100.00
63903;BME280;50072;50.678;13.938;2023-05-16T00:21:12;99028.63;;;9.12;100.00
63903;BME280;50072;50.678;13.938;2023-05-16T00:23:38;99024.16;;;9.13;100.00
63903;BME280;50072;50.678;13.938;2023-05-16T00:26:04;99034.72;;;9.16;100.00
63903;BME280;50072;50.678;13.938;2023-05-16T00:28:30;99037.41;;;9.16;100.00
63903;BME280;50072;50.678;13.938;2023-05-16T00:30:56;99041.72;;;9.20;100.00
63903;BME280;50072;50.678;13.938;2023-05-16T00:33:22;99038.09;;;9.23;100.00
63903;BME280;50072;50.678;13.938;2023-05-16T00:35:48;99047.78;;;9.27;100.00
63903;BME280;50072;50.678;13.938;2023-05-16T00:38:14;99043.41;;;9.24;100.00
63903;BME280;50072;50.678;13.938;2023-05-16T00:40:40;99048.03;;;9.18;100.00
63903;BME280;50072;50.678;13.938;2023-05-16T00:43:06;99051.53;;;9.20;100.00
63903;BME280;50072;50.678;13.938;2023-05-16T00:45:31;99043.59;;;9.18;100.00
63903;BME280;50072;50.678;13.938;2023-05-16T00:47:57;99048.03;;;9.18;100.00
63903;BME280;50072;50.678;13.938;2023-05-16T00:50:23;99051.63;;;9.17;100.00
63903;BME280;50072;50.678;13.938;2023-05-16T00:52:49;99048.97;;;9.17;100.00
63903;BME280;50072;50.678;13.938;2023-05-16T00:55:15;99057.03;;;9.15;100.00
63903;BME280;50072;50.678;13.938;2023-05-16T00:57:41;99055.38;;;9.11;100.00
63903;BME280;50072;50.678;13.938;2023-05-16T01:00:07;99058.91;;;9.11;100.00
63903;BME280;50072;50.678;13.938;2023-05-16T01:02:37;99066.16;;;9.06;100.00
63903;BME280;50072;50.678;13.938;2023-05-16T01:05:03;99064.44;;;9.05;100.00
63903;BME280;50072;50.678;13.938;2023-05-16T01:07:34;99070.81;;;9.00;100.00
63903;BME280;50072;50.678;13.938;2023-05-16T01:10:01;99074.28;;;9.02;100.00
63903;BME280;50072;50.678;13.938;2023-05-16T01:15:25;99073.84;;;8.86;100.00
63903;BME280;50072;50.678;13.938;2023-05-16T01:20:59;99061.78;;;8.72;100.00
63903;BME280;50072;50.678;13.938;2023-05-16T01:23:33;99069.69;;;8.75;100.00
63903;BME280;50072;50.678;13.938;2023-05-16T01:26:26;99067.13;;;8.72;100.00
63903;BME280;50072;50.678;13.938;2023-05-16T01:28:53;99065.31;;;8.73;100.00
63903;BME280;50072;50.678;13.938;2023-05-16T01:31:22;99063.69;;;8.67;100.00
63903;BME280;50072;50.678;13.938;2023-05-16T01:33:48;99062.03;;;8.63;100.00
63903;BME280;50072;50.678;13.938;2023-05-16T01:39:05;99072.88;;;8.57;100.00
63903;BME280;50072;50.678;13.938;2023-05-16T01:44:24;99066.81;;;8.50;100.00
63903;BME280;50072;50.678;13.938;2023-05-16T01:46:57;99060.81;;;8.40;100.00
63903;BME280;50072;50.678;13.938;2023-05-16T01:49:31;99062.72;;;8.35;100.00
63903;BME280;50072;50.678;13.938;2023-05-16T01:52:07;99068.94;;;8.36;100.00
63903;BME280;50072;50.678;13.938;2023-05-16T01:54:38;99070.78;;;8.32;100.00
63903;BME280;50072;50.678;13.938;2023-05-16T01:57:18;99066.22;;;8.37;100.00
63903;BME280;50072;50.678;13.938;2023-05-16T01:59:48;99067.34;;;8.28;100.00
63903;BME280;50072;50.678;13.938;2023-05-16T02:02:17;99056.84;;;8.22;100.00
63903;BME280;50072;50.678;13.938;2023-05-16T02:04:45;99057.63;;;8.26;100.00
63903;BME280;50072;50.678;13.938;2023-05-16T02:07:12;99065.56;;;8.27;100.00
63903;BME280;50072;50.678;13.938;2023-05-16T02:09:41;99062.22;;;8.19;100.00
63903;BME280;50072;50.678;13.938;2023-05-16T02:12:08;99067.41;;;8.25;100.00
63903;BME280;50072;50.678;13.938;2023-05-16T02:14:34;99064.78;;;8.24;100.00
63903;BME280;50072;50.678;13.938;2023-05-16T02:16:59;99063.81;;;8.26;100.00
63903;BME280;50072;50.678;13.938;2023-05-16T02:19:25;99071.03;;;8.23;100.00
63903;BME280;50072;50.678;13.938;2023-05-16T02:21:51;99074.81;;;8.14;100.00
63903;BME280;50072;50.678;13.938;2023-05-16T02:24:17;99079.19;;;8.15;100.00
63903;BME280;50072;50.678;13.938;2023-05-16T02:26:43;99068.56;;;8.13;100.00
63903;BME280;50072;50.678;13.938;2023-05-16T02:29:10;99073.13;;;8.10;100.00
63903;BME280;50072;50.678;13.938;2023-05-16T02:31:35;99088.94;;;8.16;100.00
63903;BME280;50072;50.678;13.938;2023-05-16T02:34:01;99079.06;;;8.21;100.00
63903;BME280;50072;50.678;13.938;2023-05-16T02:36:27;99070.88;;;8.29;100.00
63903;BME280;50072;50.678;13.938;2023-05-16T02:38:53;99078.34;;;8.51;100.00
63903;BME280;50072;50.678;13.938;2023-05-16T02:41:19;99072.31;;;8.42;100.00
63903;BME280;50072;50.678;13.938;2023-05-16T02:43:47;99082.94;;;8.45;100.00
63903;BME280;50072;50.678;13.938;2023-05-16T02:46:27;99078.34;;;8.51;100.00
63903;BME280;50072;50.678;13.938;2023-05-16T02:48:55;99064.94;;;8.54;100.00
63903;BME280;50072;50.678;13.938;2023-05-16T02:51:23;99070.25;;;8.55;100.00
63903;BME280;50072;50.678;13.938;2023-05-16T02:53:50;99075.53;;;8.57;100.00
63903;BME280;50072;50.678;13.938;2023-05-16T02:56:17;99077.19;;;8.61;100.00
63903;BME280;50072;50.678;13.938;2023-05-16T02:58:46;99084.22;;;8.63;100.00
63903;BME280;50072;50.678;13.938;2023-05-16T03:01:13;99084.44;;;8.56;100.00
63903;BME280;50072;50.678;13.938;2023-05-16T03:03:40;99092.34;;;8.59;100.00
63903;BME280;50072;50.678;13.938;2023-05-16T03:06:05;99091.50;;;8.58;100.00
63903;BME280;50072;50.678;13.938;2023-05-16T03:08:32;99096.66;;;8.64;100.00
63903;BME280;50072;50.678;13.938;2023-05-16T03:10:58;99087.75;;;8.66;100.00
63903;BME280;50072;50.678;13.938;2023-05-16T03:13:24;99091.94;;;8.74;100.00
63903;BME280;50072;50.678;13.938;2023-05-16T03:15:50;99082.91;;;8.80;100.00
63903;BME280;50072;50.678;13.938;2023-05-16T03:18:16;99084.72;;;8.79;100.00
63903;BME280;50072;50.678;13.938;2023-05-16T03:20:41;99078.44;;;8.80;100.00
63903;BME280;50072;50.678;13.938;2023-05-16T03:23:08;99073.75;;;8.89;100.00
63903;BME280;50072;50.678;13.938;2023-05-16T03:25:34;99075.66;;;8.85;100.00
63903;BME280;50072;50.678;13.938;2023-05-16T03:28:02;99078.16;;;8.91;100.00
63903;BME280;50072;50.678;13.938;2023-05-16T03:30:27;99082.16;;;9.06;100.00
63903;BME280;50072;50.678;13.938;2023-05-16T03:32:54;99088.72;;;9.26;100.00
63903;BME280;50072;50.678;13.938;2023-05-16T03:35:21;99088.38;;;9.38;100.00
63903;BME280;50072;50.678;13.938;2023-05-16T03:37:47;99095.09;;;9.52;100.00
63903;BME280;50072;50.678;13.938;2023-05-16T03:40:13;99107.19;;;9.65;100.00
63903;BME280;50072;50.678;13.938;2023-05-16T03:42:40;99101.66;;;9.71;100.00
63903;BME280;50072;50.678;13.938;2023-05-16T03:45:06;99115.66;;;9.79;100.00
63903;BME280;50072;50.678;13.938;2023-05-16T03:47:33;99121.72;;;9.84;100.00
63903;BME280;50072;50.678;13.938;2023-05-16T03:49:59;99125.06;;;9.91;100.00
63903;BME280;50072;50.678;13.938;2023-05-16T03:52:25;99125.88;;;9.95;100.00
63903;BME280;50072;50.678;13.938;2023-05-16T03:54:51;99136.56;;;9.95;100.00
63903;BME280;50072;50.678;13.938;2023-05-16T03:57:17;99126.84;;;9.92;100.00
63903;BME280;50072;50.678;13.938;2023-05-16T03:59:43;99133.75;;;9.99;100.00
63903;BME280;50072;50.678;13.938;2023-05-16T04:02:09;99139.84;;;10.03;100.00
63903;BME280;50072;50.678;13.938;2023-05-16T04:04:35;99140.88;;;9.99;100.00
63903;BME280;50072;50.678;13.938;2023-05-16T04:07:01;99143.47;;;10.02;100.00
63903;BME280;50072;50.678;13.938;2023-05-16T04:09:27;99151.44;;;10.04;100.00
63903;BME280;50072;50.678;13.938;2023-05-16T04:11:53;99150.31;;;10.11;100.00
63903;BME280;50072;50.678;13.938;2023-05-16T04:14:22;99149.97;;;10.22;100.00
63903;BME280;50072;50.678;13.938;2023-05-16T04:16:49;99146.09;;;10.32;100.00
63903;BME280;50072;50.678;13.938;2023-05-16T04:19:16;99152.91;;;10.42;100.00
63903;BME280;50072;50.678;13.938;2023-05-16T04:21:41;99161.63;;;10.49;100.00
63903;BME280;50072;50.678;13.938;2023-05-16T04:24:07;99162.22;;;10.57;100.00
63903;BME280;50072;50.678;13.938;2023-05-16T04:26:33;99154.00;;;10.63;100.00
63903;BME280;50072;50.678;13.938;2023-05-16T04:28:58;99154.25;;;10.82;100.00
63903;BME280;50072;50.678;13.938;2023-05-16T04:31:24;99155.63;;;10.94;100.00
63903;BME280;50072;50.678;13.938;2023-05-16T04:33:51;99157.06;;;11.04;100.00
63903;BME280;50072;50.678;13.938;2023-05-16T04:36:17;99141.97;;;11.02;100.00
63903;BME280;50072;50.678;13.938;2023-05-16T04:38:43;99138.25;;;11.06;100.00
63903;BME280;50072;50.678;13.938;2023-05-16T04:41:11;99139.00;;;11.10;100.00
63903;BME280;50072;50.678;13.938;2023-05-16T04:43:38;99158.38;;;11.18;100.00
63903;BME280;50072;50.678;13.938;2023-05-16T04:46:05;99153.31;;;11.34;100.00
63903;BME280;50072;50.678;13.938;2023-05-16T04:48:32;99155.50;;;11.48;100.00
63903;BME280;50072;50.678;13.938;2023-05-16T04:50:58;99156.25;;;11.51;100.00
63903;BME280;50072;50.678;13.938;2023-05-16T04:53:24;99165.06;;;11.55;100.00
63903;BME280;50072;50.678;13.938;2023-05-16T04:55:50;99159.59;;;11.58;100.00
63903;BME280;50072;50.678;13.938;2023-05-16T04:58:16;99165.88;;;11.57;100.00
63903;BME280;50072;50.678;13.938;2023-05-16T05:00:42;99170.47;;;11.53;100.00
63903;BME280;50072;50.678;13.938;2023-05-16T05:03:07;99168.78;;;11.51;100.00
63903;BME280;50072;50.678;13.938;2023-05-16T05:05:33;99157.31;;;11.47;100.00
63903;BME280;50072;50.678;13.938;2023-05-16T05:07:59;99157.25;;;11.49;100.00
63903;BME280;50072;50.678;13.938;2023-05-16T05:10:27;99167.75;;;11.55;100.00
63903;BME280;50072;50.678;13.938;2023-05-16T05:12:52;99173.22;;;11.52;100.00
63903;BME280;50072;50.678;13.938;2023-05-16T05:15:18;99171.63;;;11.70;100.00
63903;BME280;50072;50.678;13.938;2023-05-16T05:17:44;99182.59;;;11.64;100.00
63903;BME280;50072;50.678;13.938;2023-05-16T05:20:10;99173.53;;;11.68;100.00
63903;BME280;50072;50.678;13.938;2023-05-16T05:22:36;99175.69;;;11.82;100.00
63903;BME280;50072;50.678;13.938;2023-05-16T05:25:04;99183.47;;;11.88;100.00
63903;BME280;50072;50.678;13.938;2023-05-16T05:27:31;99191.28;;;11.96;100.00
63903;BME280;50072;50.678;13.938;2023-05-16T05:29:57;99194.72;;;11.99;100.00
63903;BME280;50072;50.678;13.938;2023-05-16T05:32:23;99191.84;;;12.04;100.00
63903;BME280;50072;50.678;13.938;2023-05-16T05:34:49;99201.13;;;12.19;100.00
63903;BME280;50072;50.678;13.938;2023-05-16T05:37:15;99203.34;;;12.30;100.00
63903;BME280;50072;50.678;13.938;2023-05-16T05:39:41;99202.38;;;12.54;100.00
63903;BME280;50072;50.678;13.938;2023-05-16T05:42:07;99206.63;;;12.60;100.00
63903;BME280;50072;50.678;13.938;2023-05-16T05:44:34;99212.38;;;12.73;100.00
63903;BME280;50072;50.678;13.938;2023-05-16T05:47:03;99219.16;;;12.82;100.00
63903;BME280;50072;50.678;13.938;2023-05-16T05:49:31;99217.34;;;12.82;100.00
63903;BME280;50072;50.678;13.938;2023-05-16T05:51:57;99216.63;;;12.99;100.00
63903;BME280;50072;50.678;13.938;2023-05-16T05:54:24;99212.91;;;13.03;100.00
63903;BME280;50072;50.678;13.938;2023-05-16T05:56:51;99219.53;;;13.15;100.00
63903;BME280;50072;50.678;13.938;2023-05-16T05:59:18;99214.59;;;13.26;97.52
63903;BME280;50072;50.678;13.938;2023-05-16T06:01:43;99212.25;;;13.39;97.01
63903;BME280;50072;50.678;13.938;2023-05-16T06:04:11;99213.28;;;13.37;95.87
63903;BME280;50072;50.678;13.938;2023-05-16T06:06:37;99208.44;;;13.45;96.34
63903;BME280;50072;50.678;13.938;2023-05-16T06:09:05;99200.22;;;13.48;97.15
63903;BME280;50072;50.678;13.938;2023-05-16T06:11:31;99208.81;;;13.56;97.33
63903;BME280;50072;50.678;13.938;2023-05-16T06:13:58;99218.22;;;13.67;94.07
63903;BME280;50072;50.678;13.938;2023-05-16T06:16:25;99213.38;;;13.75;92.67
63903;BME280;50072;50.678;13.938;2023-05-16T06:18:51;99218.88;;;13.92;92.78
63903;BME280;50072;50.678;13.938;2023-05-16T06:21:17;99216.75;;;13.99;90.01
63903;BME280;50072;50.678;13.938;2023-05-16T06:23:44;99209.91;;;13.92;91.97
63903;BME280;50072;50.678;13.938;2023-05-16T06:26:10;99214.97;;;14.00;90.81
63903;BME280;50072;50.678;13.938;2023-05-16T06:28:37;99212.28;;;14.00;87.90
63903;BME280;50072;50.678;13.938;2023-05-16T06:31:03;99209.56;;;14.00;88.28
63903;BME280;50072;50.678;13.938;2023-05-16T06:33:29;99209.13;;;14.09;89.43
63903;BME280;50072;50.678;13.938;2023-05-16T06:35:55;99210.81;;;14.30;88.70
63903;BME280;50072;50.678;13.938;2023-05-16T06:38:21;99221.84;;;14.43;87.25
63903;BME280;50072;50.678;13.938;2023-05-16T06:40:47;99226.88;;;14.51;83.02
63903;BME280;50072;50.678;13.938;2023-05-16T06:43:16;99225.38;;;14.45;82.75
63903;BME280;50072;50.678;13.938;2023-05-16T06:45:43;99220.53;;;14.52;79.70
63903;BME280;50072;50.678;13.938;2023-05-16T06:48:09;99216.91;;;14.53;81.45
63903;BME280;50072;50.678;13.938;2023-05-16T06:50:35;99224.97;;;14.53;82.69
63903;BME280;50072;50.678;13.938;2023-05-16T06:53:01;99219.34;;;14.58;81.84
63903;BME280;50072;50.678;13.938;2023-05-16T06:55:29;99229.81;;;14.65;81.94
63903;BME280;50072;50.678;13.938;2023-05-16T06:57:55;99227.97;;;14.66;82.47
63903;BME280;50072;50.678;13.938;2023-05-16T07:00:23;99218.50;;;14.76;81.05
63903;BME280;50072;50.678;13.938;2023-05-16T07:02:49;99221.25;;;14.75;82.18
63903;BME280;50072;50.678;13.938;2023-05-16T07:05:15;99225.72;;;14.76;81.99
63903;BME280;50072;50.678;13.938;2023-05-16T07:07:41;99225.22;;;14.67;81.34
63903;BME280;50072;50.678;13.938;2023-05-16T07:10:07;99219.50;;;14.55;77.99
63903;BME280;50072;50.678;13.938;2023-05-16T07:12:35;99222.50;;;14.48;78.98
63903;BME280;50072;50.678;13.938;2023-05-16T07:15:03;99226.69;;;14.37;77.73
63903;BME280;50072;50.678;13.938;2023-05-16T07:17:29;99213.56;;;14.29;80.69
63903;BME280;50072;50.678;13.938;2023-05-16T07:19:56;99221.00;;;14.43;78.62
63903;BME280;50072;50.678;13.938;2023-05-16T07:22:22;99216.94;;;14.34;77.89
63903;BME280;50072;50.678;13.938;2023-05-16T07:24:48;99212.03;;;14.23;78.72
63903;BME280;50072;50.678;13.938;2023-05-16T07:27:15;99214.47;;;14.29;77.98
63903;BME280;50072;50.678;13.938;2023-05-16T07:29:42;99219.22;;;14.42;80.79
63903;BME280;50072;50.678;13.938;2023-05-16T07:32:09;99224.25;;;14.69;79.72
63903;BME280;50072;50.678;13.938;2023-05-16T07:34:35;99228.31;;;14.77;77.59
63903;BME280;50072;50.678;13.938;2023-05-16T07:37:01;99228.28;;;14.96;77.18
63903;BME280;50072;50.678;13.938;2023-05-16T07:39:26;99225.91;;;15.08;76.83
63903;BME280;50072;50.678;13.938;2023-05-16T07:41:53;99235.66;;;15.10;75.56
63903;BME280;50072;50.678;13.938;2023-05-16T07:44:18;99234.78;;;14.92;75.75
63903;BME280;50072;50.678;13.938;2023-05-16T07:46:44;99234.13;;;14.87;76.10
63903;BME280;50072;50.678;13.938;2023-05-16T07:49:10;99235.44;;;15.15;77.60
63903;BME280;50072;50.678;13.938;2023-05-16T07:51:36;99243.53;;;15.32;74.57
63903;BME280;50072;50.678;13.938;2023-05-16T07:54:03;99248.53;;;15.58;77.19
63903;BME280;50072;50.678;13.938;2023-05-16T07:56:29;99253.06;;;15.22;71.88
63903;BME280;50072;50.678;13.938;2023-05-16T07:58:55;99259.03;;;14.92;73.50
63903;BME280;50072;50.678;13.938;2023-05-16T08:01:22;99263.72;;;14.70;74.29
63903;BME280;50072;50.678;13.938;2023-05-16T08:03:47;99265.53;;;14.88;73.48
63903;BME280;50072;50.678;13.938;2023-05-16T08:06:13;99272.47;;;15.11;74.43
63903;BME280;50072;50.678;13.938;2023-05-16T08:08:39;99274.06;;;15.50;74.62
63903;BME280;50072;50.678;13.938;2023-05-16T08:11:05;99276.53;;;15.55;67.96
63903;BME280;50072;50.678;13.938;2023-05-16T08:13:33;99277.50;;;15.89;71.69
63903;BME280;50072;50.678;13.938;2023-05-16T08:15:59;99280.09;;;16.24;68.70
63903;BME280;50072;50.678;13.938;2023-05-16T08:18:25;99287.00;;;15.96;66.25
63903;BME280;50072;50.678;13.938;2023-05-16T08:20:50;99296.06;;;15.95;69.32
63903;BME280;50072;50.678;13.938;2023-05-16T08:23:16;99298.75;;;15.78;66.61
63903;BME280;50072;50.678;13.938;2023-05-16T08:25:42;99298.84;;;15.94;66.30
63903;BME280;50072;50.678;13.938;2023-05-16T08:28:08;99301.41;;;16.46;68.19
63903;BME280;50072;50.678;13.938;2023-05-16T08:30:34;99298.22;;;16.87;68.82
63903;BME280;50072;50.678;13.938;2023-05-16T08:32:59;99303.91;;;17.15;66.78
63903;BME280;50072;50.678;13.938;2023-05-16T08:35:29;99315.53;;;17.31;67.15
63903;BME280;50072;50.678;13.938;2023-05-16T08:37:56;99309.03;;;17.50;65.34
63903;BME280;50072;50.678;13.938;2023-05-16T08:40:25;99305.44;;;17.65;63.14
63903;BME280;50072;50.678;13.938;2023-05-16T08:42:51;99314.72;;;17.75;60.79
63903;BME280;50072;50.678;13.938;2023-05-16T08:45:16;99317.09;;;17.82;62.14
63903;BME280;50072;50.678;13.938;2023-05-16T08:47:42;99319.25;;;17.91;59.30
63903;BME280;50072;50.678;13.938;2023-05-16T08:50:10;99304.13;;;18.17;60.33
63903;BME280;50072;50.678;13.938;2023-05-16T08:52:37;99313.59;;;18.39;58.76
63903;BME280;50072;50.678;13.938;2023-05-16T08:55:08;99314.63;;;18.65;59.99
63903;BME280;50072;50.678;13.938;2023-05-16T08:57:34;99322.19;;;18.89;59.36
63903;BME280;50072;50.678;13.938;2023-05-16T09:00:00;99323.88;;;19.19;59.78
63903;BME280;50072;50.678;13.938;2023-05-16T09:02:39;99332.41;;;19.40;54.99
63903;BME280;50072;50.678;13.938;2023-05-16T09:05:08;99335.94;;;19.55;53.73
63903;BME280;50072;50.678;13.938;2023-05-16T09:07:35;99334.88;;;19.70;54.15
63903;BME280;50072;50.678;13.938;2023-05-16T09:10:01;99340.28;;;19.85;56.84
63903;BME280;50072;50.678;13.938;2023-05-16T09:12:27;99347.66;;;19.82;55.31
63903;BME280;50072;50.678;13.938;2023-05-16T09:14:53;99359.59;;;19.53;56.58
63903;BME280;50072;50.678;13.938;2023-05-16T09:17:20;99348.72;;;18.69;54.84
63903;BME280;50072;50.678;13.938;2023-05-16T09:19:46;99355.69;;;18.88;55.52
63903;BME280;50072;50.678;13.938;2023-05-16T09:22:14;99357.75;;;19.26;56.64
63903;BME280;50072;50.678;13.938;2023-05-16T09:24:44;99363.50;;;19.48;54.23
63903;BME280;50072;50.678;13.938;2023-05-16T09:27:12;99370.16;;;19.85;54.57
63903;BME280;50072;50.678;13.938;2023-05-16T09:29:40;99363.78;;;19.98;52.49
63903;BME280;50072;50.678;13.938;2023-05-16T09:32:10;99367.22;;;19.88;52.57
63903;BME280;50072;50.678;13.938;2023-05-16T09:34:38;99366.03;;;19.92;52.30
63903;BME280;50072;50.678;13.938;2023-05-16T09:37:06;99366.28;;;20.14;51.68
63903;BME280;50072;50.678;13.938;2023-05-16T09:39:34;99366.63;;;20.61;51.28
63903;BME280;50072;50.678;13.938;2023-05-16T09:42:00;99368.50;;;20.74;50.77
63903;BME280;50072;50.678;13.938;2023-05-16T09:44:26;99367.22;;;21.16;50.41
63903;BME280;50072;50.678;13.938;2023-05-16T09:46:53;99383.00;;;21.11;48.81
63903;BME280;50072;50.678;13.938;2023-05-16T09:49:20;99382.41;;;20.69;48.22
63903;BME280;50072;50.678;13.938;2023-05-16T09:51:45;99386.13;;;20.68;50.39
63903;BME280;50072;50.678;13.938;2023-05-16T09:54:12;99385.56;;;20.50;50.52
63903;BME280;50072;50.678;13.938;2023-05-16T09:56:48;99385.81;;;19.94;48.81
63903;BME280;50072;50.678;13.938;2023-05-16T09:59:15;99391.81;;;18.88;50.27
63903;BME280;50072;50.678;13.938;2023-05-16T10:01:41;99390.53;;;18.94;51.24
63903;BME280;50072;50.678;13.938;2023-05-16T10:04:07;99386.63;;;19.27;53.84
63903;BME280;50072;50.678;13.938;2023-05-16T10:06:39;99388.28;;;19.15;50.64
63903;BME280;50072;50.678;13.938;2023-05-16T10:09:10;99387.97;;;19.34;52.25
63903;BME280;50072;50.678;13.938;2023-05-16T10:11:50;99377.88;;;19.63;52.24
63903;BME280;50072;50.678;13.938;2023-05-16T10:14:18;99367.38;;;19.72;50.95
63903;BME280;50072;50.678;13.938;2023-05-16T10:16:47;99376.16;;;19.90;51.12
63903;BME280;50072;50.678;13.938;2023-05-16T10:19:19;99380.84;;;20.26;48.58
63903;BME280;50072;50.678;13.938;2023-05-16T10:21:52;99378.13;;;20.13;47.71
63903;BME280;50072;50.678;13.938;2023-05-16T10:24:47;99382.31;;;19.92;48.05
63903;BME280;50072;50.678;13.938;2023-05-16T10:27:10;99377.16;;;19.47;49.96
63903;BME280;50072;50.678;13.938;2023-05-16T10:29:47;99374.41;;;20.02;52.27
63903;BME280;50072;50.678;13.938;2023-05-16T10:32:22;99375.25;;;20.68;48.88
63903;BME280;50072;50.678;13.938;2023-05-16T10:34:48;99375.47;;;21.15;48.57
63903;BME280;50072;50.678;13.938;2023-05-16T10:37:20;99378.66;;;21.09;47.16
63903;BME280;50072;50.678;13.938;2023-05-16T10:39:50;99379.50;;;21.22;45.06
63903;BME280;50072;50.678;13.938;2023-05-16T10:42:17;99383.63;;;21.76;45.80
63903;BME280;50072;50.678;13.938;2023-05-16T10:44:48;99389.75;;;22.15;43.56
63903;BME280;50072;50.678;13.938;2023-05-16T10:47:18;99384.91;;;22.77;43.29
63903;BME280;50072;50.678;13.938;2023-05-16T10:49:44;99383.88;;;22.33;41.24
63903;BME280;50072;50.678;13.938;2023-05-16T10:52:12;99376.94;;;23.42;40.72
63903;BME280;50072;50.678;13.938;2023-05-16T10:54:41;99379.47;;;23.22;39.30
63903;BME280;50072;50.678;13.938;2023-05-16T10:57:18;99382.22;;;23.66;38.44
63903;BME280;50072;50.678;13.938;2023-05-16T10:59:49;99366.31;;;23.60;38.01
63903;BME280;50072;50.678;13.938;2023-05-16T11:02:27;99375.19;;;23.85;41.25
63903;BME280;50072;50.678;13.938;2023-05-16T11:04:58;99376.84;;;23.76;37.74
63903;BME280;50072;50.678;13.938;2023-05-16T11:07:31;99381.19;;;22.67;38.14
63903;BME280;50072;50.678;13.938;2023-05-16T11:12:42;99369.22;;;21.63;43.82
63903;BME280;50072;50.678;13.938;2023-05-16T11:15:24;99365.22;;;22.15;41.21
63903;BME280;50072;50.678;13.938;2023-05-16T11:17:55;99368.50;;;21.61;40.42
63903;BME280;50072;50.678;13.938;2023-05-16T11:20:50;99367.41;;;21.50;43.38
63903;BME280;50072;50.678;13.938;2023-05-16T11:23:23;99376.47;;;21.75;44.32
63903;BME280;50072;50.678;13.938;2023-05-16T11:26:07;99369.63;;;21.94;41.90
63903;BME280;50072;50.678;13.938;2023-05-16T11:28:33;99357.88;;;21.32;42.52
63903;BME280;50072;50.678;13.938;2023-05-16T11:30:58;99364.09;;;21.71;41.62
63903;BME280;50072;50.678;13.938;2023-05-16T11:33:25;99364.25;;;21.19;42.00
63903;BME280;50072;50.678;13.938;2023-05-16T11:36:05;99370.53;;;21.33;45.26
63903;BME280;50072;50.678;13.938;2023-05-16T11:38:31;99377.94;;;20.94;42.77
63903;BME280;50072;50.678;13.938;2023-05-16T11:41:05;99373.69;;;20.12;45.59
63903;BME280;50072;50.678;13.938;2023-05-16T11:43:42;99371.22;;;19.82;45.97
63903;BME280;50072;50.678;13.938;2023-05-16T11:46:11;99377.38;;;20.11;45.39
63903;BME280;50072;50.678;13.938;2023-05-16T11:48:37;99379.28;;;20.75;44.67
63903;BME280;50072;50.678;13.938;2023-05-16T11:51:04;99381.19;;;20.34;44.23
63903;BME280;50072;50.678;13.938;2023-05-16T11:53:30;99376.75;;;20.85;43.34
63903;BME280;50072;50.678;13.938;2023-05-16T11:55:55;99373.47;;;20.93;43.91
63903;BME280;50072;50.678;13.938;2023-05-16T11:58:24;99366.78;;;21.47;40.40
63903;BME280;50072;50.678;13.938;2023-05-16T12:00:51;99369.63;;;21.08;41.25
63903;BME280;50072;50.678;13.938;2023-05-16T12:03:18;99373.53;;;21.78;41.44
63903;BME280;50072;50.678;13.938;2023-05-16T12:05:54;99379.47;;;21.35;41.04
63903;BME280;50072;50.678;13.938;2023-05-16T12:08:22;99375.53;;;21.26;41.83
63903;BME280;50072;50.678;13.938;2023-05-16T12:10:50;99378.81;;;21.31;42.55
63903;BME280;50072;50.678;13.938;2023-05-16T12:13:18;99380.31;;;20.21;42.70
63903;BME280;50072;50.678;13.938;2023-05-16T12:15:44;99385.03;;;19.64;44.47
63903;BME280;50072;50.678;13.938;2023-05-16T12:18:10;99377.50;;;19.28;46.40
63903;BME280;50072;50.678;13.938;2023-05-16T12:20:37;99386.44;;;19.85;44.19
63903;BME280;50072;50.678;13.938;2023-05-16T12:23:02;99382.84;;;20.89;43.13
63903;BME280;50072;50.678;13.938;2023-05-16T12:25:30;99390.06;;;21.51;41.73
63903;BME280;50072;50.678;13.938;2023-05-16T12:27:58;99411.31;;;21.09;41.33
63903;BME280;50072;50.678;13.938;2023-05-16T12:30:29;99402.16;;;21.60;42.81
63903;BME280;50072;50.678;13.938;2023-05-16T12:33:03;99402.31;;;21.94;40.92
63903;BME280;50072;50.678;13.938;2023-05-16T12:35:33;99402.25;;;23.44;37.62
63903;BME280;50072;50.678;13.938;2023-05-16T12:38:06;99401.34;;;23.66;36.79
63903;BME280;50072;50.678;13.938;2023-05-16T12:40:35;99416.59;;;23.80;36.10
63903;BME280;50072;50.678;13.938;2023-05-16T12:43:01;99416.88;;;24.30;35.43
63903;BME280;50072;50.678;13.938;2023-05-16T12:45:27;99427.03;;;24.61;36.02
63903;BME280;50072;50.678;13.938;2023-05-16T12:47:53;99431.97;;;23.81;35.84
63903;BME280;50072;50.678;13.938;2023-05-16T12:50:19;99432.31;;;23.33;34.99
63903;BME280;50072;50.678;13.938;2023-05-16T12:52:52;99421.13;;;23.47;37.96
63903;BME280;50072;50.678;13.938;2023-05-16T12:55:20;99428.72;;;23.09;38.42
63903;BME280;50072;50.678;13.938;2023-05-16T12:57:47;99434.22;;;22.51;40.35
63903;BME280;50072;50.678;13.938;2023-05-16T13:00:15;99444.88;;;22.19;40.13
63903;BME280;50072;50.678;13.938;2023-05-16T13:02:41;99441.56;;;21.67;41.69
63903;BME280;50072;50.678;13.938;2023-05-16T13:05:07;99437.53;;;21.23;43.13